sensor_id;sensor_type;location;lat;lon;timestamp;P1;durP1;ratioP1;P2;durP2;ratioP2
6033;SDS011;3045;43.226;27.858;2023-03-14T00:00:49;13.07;;;11.43;;
6033;SDS011;3045;43.226;27.858;2023-03-14T00:03:16;17.87;;;10.90;;
6033;SDS011;3045;43.226;27.858;2023-03-14T00:05:43;13.50;;;9.80;;
6033;SDS011;3045;43.226;27.858;2023-03-14T00:08:11;13.93;;;8.20;;
6033;SDS011;3045;43.226;27.858;2023-03-14T00:10:39;9.47;;;8.57;;
6033;SDS011;3045;43.226;27.858;2023-03-14T00:13:06;26.13;;;9.07;;
6033;SDS011;3045;43.226;27.858;2023-03-14T00:15:33;9.43;;;8.57;;
6033;SDS011;3045;43.226;27.858;2023-03-14T00:18:00;9.93;;;8.23;;
6033;SDS011;3045;43.226;27.858;2023-03-14T00:20:27;17.57;;;8.13;;
6033;SDS011;3045;43.226;27.858;2023-03-14T00:22:54;9.00;;;7.73;;
6033;SDS011;3045;43.226;27.858;2023-03-14T00:25:22;8.67;;;7.97;;
6033;SDS011;3045;43.226;27.858;2023-03-14T00:27:50;8.17;;;7.47;;
6033;SDS011;3045;43.226;27.858;2023-03-14T00:30:17;8.10;;;7.30;;
6033;SDS011;3045;43.226;27.858;2023-03-14T00:32:49;10.50;;;8.00;;
6033;SDS011;3045;43.226;27.858;2023-03-14T00:35:15;12.07;;;8.50;;
6033;SDS011;3045;43.226;27.858;2023-03-14T00:37:42;13.93;;;7.57;;
6033;SDS011;3045;43.226;27.858;2023-03-14T00:40:10;9.97;;;7.73;;
6033;SDS011;3045;43.226;27.858;2023-03-14T00:42:38;7.30;;;6.90;;
6033;SDS011;3045;43.226;27.858;2023-03-14T00:45:06;8.17;;;7.53;;
6033;SDS011;3045;43.226;27.858;2023-03-14T00:47:34;10.07;;;8.40;;
6033;SDS011;3045;43.226;27.858;2023-03-14T00:50:00;10.37;;;7.83;;
6033;SDS011;3045;43.226;27.858;2023-03-14T00:52:27;7.80;;;7.10;;
6033;SDS011;3045;43.226;27.858;2023-03-14T00:54:54;13.77;;;9.00;;
6033;SDS011;3045;43.226;27.858;2023-03-14T00:57:21;15.43;;;8.13;;
6033;SDS011;3045;43.226;27.858;2023-03-14T00:59:50;5.20;;;4.80;;
6033;SDS011;3045;43.226;27.858;2023-03-14T01:02:17;5.43;;;4.73;;
6033;SDS011;3045;43.226;27.858;2023-03-14T01:04:44;6.33;;;5.83;;
6033;SDS011;3045;43.226;27.858;2023-03-14T01:07:13;6.93;;;6.40;;
6033;SDS011;3045;43.226;27.858;2023-03-14T01:09:40;7.47;;;6.77;;
6033;SDS011;3045;43.226;27.858;2023-03-14T01:12:07;7.33;;;5.97;;
6033;SDS011;3045;43.226;27.858;2023-03-14T01:14:33;6.10;;;5.50;;
6033;SDS011;3045;43.226;27.858;2023-03-14T01:17:02;6.60;;;6.23;;
6033;SDS011;3045;43.226;27.858;2023-03-14T01:19:29;5.93;;;5.43;;
6033;SDS011;3045;43.226;27.858;2023-03-14T01:21:56;6.57;;;6.03;;
6033;SDS011;3045;43.226;27.858;2023-03-14T01:24:23;7.43;;;5.80;;
6033;SDS011;3045;43.226;27.858;2023-03-14T01:26:50;5.70;;;5.23;;
6033;SDS011;3045;43.226;27.858;2023-03-14T01:29:17;8.13;;;6.27;;
6033;SDS011;3045;43.226;27.858;2023-03-14T01:31:44;6.63;;;6.07;;
6033;SDS011;3045;43.226;27.858;2023-03-14T01:34:12;6.10;;;5.70;;
6033;SDS011;3045;43.226;27.858;2023-03-14T01:36:39;6.37;;;5.97;;
6033;SDS011;3045;43.226;27.858;2023-03-14T01:39:06;7.00;;;6.30;;
6033;SDS011;3045;43.226;27.858;2023-03-14T01:41:33;11.37;;;6.33;;
6033;SDS011;3045;43.226;27.858;2023-03-14T01:44:00;12.67;;;5.70;;
6033;SDS011;3045;43.226;27.858;2023-03-14T01:46:32;7.57;;;6.70;;
6033;SDS011;3045;43.226;27.858;2023-03-14T01:49:07;10.47;;;6.97;;
6033;SDS011;3045;43.226;27.858;2023-03-14T01:51:41;8.17;;;5.93;;
6033;SDS011;3045;43.226;27.858;2023-03-14T01:54:14;6.67;;;6.27;;
6033;SDS011;3045;43.226;27.858;2023-03-14T01:56:45;6.00;;;5.70;;
6033;SDS011;3045;43.226;27.858;2023-03-14T01:59:16;10.80;;;6.40;;
6033;SDS011;3045;43.226;27.858;2023-03-14T02:01:44;6.30;;;5.63;;
6033;SDS011;3045;43.226;27.858;2023-03-14T02:04:15;8.80;;;7.23;;
6033;SDS011;3045;43.226;27.858;2023-03-14T02:06:48;7.67;;;6.97;;
6033;SDS011;3045;43.226;27.858;2023-03-14T02:09:19;8.80;;;7.10;;
6033;SDS011;3045;43.226;27.858;2023-03-14T02:11:46;7.13;;;6.53;;
6033;SDS011;3045;43.226;27.858;2023-03-14T02:14:19;7.20;;;6.60;;
6033;SDS011;3045;43.226;27.858;2023-03-14T02:16:53;11.00;;;7.10;;
6033;SDS011;3045;43.226;27.858;2023-03-14T02:19:23;11.77;;;7.43;;
6033;SDS011;3045;43.226;27.858;2023-03-14T02:21:57;9.80;;;7.97;;
6033;SDS011;3045;43.226;27.858;2023-03-14T02:24:33;6.60;;;6.10;;
6033;SDS011;3045;43.226;27.858;2023-03-14T02:27:08;11.27;;;7.13;;
6033;SDS011;3045;43.226;27.858;2023-03-14T02:29:37;18.07;;;8.13;;
6033;SDS011;3045;43.226;27.858;2023-03-14T02:32:11;22.40;;;7.13;;
6033;SDS011;3045;43.226;27.858;2023-03-14T02:34:39;8.07;;;7.30;;
6033;SDS011;3045;43.226;27.858;2023-03-14T02:37:09;9.23;;;7.80;;
6033;SDS011;3045;43.226;27.858;2023-03-14T02:39:37;11.77;;;7.73;;
6033;SDS011;3045;43.226;27.858;2023-03-14T02:42:06;8.40;;;7.30;;
6033;SDS011;3045;43.226;27.858;2023-03-14T02:44:34;11.50;;;7.70;;
6033;SDS011;3045;43.226;27.858;2023-03-14T02:47:02;10.73;;;7.90;;
6033;SDS011;3045;43.226;27.858;2023-03-14T02:49:29;14.07;;;9.87;;
6033;SDS011;3045;43.226;27.858;2023-03-14T02:51:58;10.47;;;9.60;;
6033;SDS011;3045;43.226;27.858;2023-03-14T02:54:25;16.20;;;9.00;;
6033;SDS011;3045;43.226;27.858;2023-03-14T02:56:52;15.83;;;9.27;;
6033;SDS011;3045;43.226;27.858;2023-03-14T02:59:20;15.20;;;9.10;;
6033;SDS011;3045;43.226;27.858;2023-03-14T03:01:47;9.43;;;8.53;;
6033;SDS011;3045;43.226;27.858;2023-03-14T03:04:13;11.40;;;8.63;;
6033;SDS011;3045;43.226;27.858;2023-03-14T03:06:40;18.20;;;10.27;;
6033;SDS011;3045;43.226;27.858;2023-03-14T03:09:07;15.40;;;10.13;;
6033;SDS011;3045;43.226;27.858;2023-03-14T03:11:34;13.57;;;9.83;;
6033;SDS011;3045;43.226;27.858;2023-03-14T03:14:01;13.67;;;9.47;;
6033;SDS011;3045;43.226;27.858;2023-03-14T03:16:29;12.23;;;9.63;;
6033;SDS011;3045;43.226;27.858;2023-03-14T03:18:56;13.97;;;11.20;;
6033;SDS011;3045;43.226;27.858;2023-03-14T03:21:23;16.70;;;10.30;;
6033;SDS011;3045;43.226;27.858;2023-03-14T03:23:50;9.93;;;8.40;;
6033;SDS011;3045;43.226;27.858;2023-03-14T03:26:17;8.03;;;7.43;;
6033;SDS011;3045;43.226;27.858;2023-03-14T03:28:44;9.17;;;8.27;;
6033;SDS011;3045;43.226;27.858;2023-03-14T03:31:11;14.13;;;9.60;;
6033;SDS011;3045;43.226;27.858;2023-03-14T03:33:39;11.30;;;8.10;;
6033;SDS011;3045;43.226;27.858;2023-03-14T03:36:07;10.67;;;7.93;;
6033;SDS011;3045;43.226;27.858;2023-03-14T03:38:35;20.13;;;9.77;;
6033;SDS011;3045;43.226;27.858;2023-03-14T03:41:03;15.27;;;8.90;;
6033;SDS011;3045;43.226;27.858;2023-03-14T03:43:31;19.67;;;9.30;;
6033;SDS011;3045;43.226;27.858;2023-03-14T03:45:58;16.87;;;9.47;;
6033;SDS011;3045;43.226;27.858;2023-03-14T03:48:28;22.73;;;9.27;;
6033;SDS011;3045;43.226;27.858;2023-03-14T03:50:56;11.43;;;8.00;;
6033;SDS011;3045;43.226;27.858;2023-03-14T03:53:23;12.93;;;8.77;;
6033;SDS011;3045;43.226;27.858;2023-03-14T03:55:50;16.87;;;9.00;;
6033;SDS011;3045;43.226;27.858;2023-03-14T03:58:17;13.90;;;8.57;;
6033;SDS011;3045;43.226;27.858;2023-03-14T04:00:44;23.00;;;9.13;;
6033;SDS011;3045;43.226;27.858;2023-03-14T04:03:11;16.47;;;8.40;;
6033;SDS011;3045;43.226;27.858;2023-03-14T04:05:38;21.87;;;9.47;;
6033;SDS011;3045;43.226;27.858;2023-03-14T04:08:06;21.67;;;8.97;;
6033;SDS011;3045;43.226;27.858;2023-03-14T04:10:33;18.93;;;8.70;;
6033;SDS011;3045;43.226;27.858;2023-03-14T04:13:00;10.20;;;7.50;;
6033;SDS011;3045;43.226;27.858;2023-03-14T04:15:27;13.07;;;8.80;;
6033;SDS011;3045;43.226;27.858;2023-03-14T04:17:56;11.00;;;8.07;;
6033;SDS011;3045;43.226;27.858;2023-03-14T04:20:23;13.27;;;7.47;;
6033;SDS011;3045;43.226;27.858;2023-03-14T04:22:50;11.63;;;7.40;;
6033;SDS011;3045;43.226;27.858;2023-03-14T04:25:18;17.07;;;7.77;;
6033;SDS011;3045;43.226;27.858;2023-03-14T04:27:45;14.33;;;8.03;;
6033;SDS011;3045;43.226;27.858;2023-03-14T04:30:12;10.57;;;7.70;;
6033;SDS011;3045;43.226;27.858;2023-03-14T04:32:39;9.33;;;8.20;;
6033;SDS011;3045;43.226;27.858;2023-03-14T04:35:07;8.83;;;8.03;;
6033;SDS011;3045;43.226;27.858;2023-03-14T04:37:34;16.10;;;8.53;;
6033;SDS011;3045;43.226;27.858;2023-03-14T04:40:02;18.27;;;8.47;;
6033;SDS011;3045;43.226;27.858;2023-03-14T04:42:32;11.43;;;8.17;;
6033;SDS011;3045;43.226;27.858;2023-03-14T04:44:59;14.77;;;8.00;;
6033;SDS011;3045;43.226;27.858;2023-03-14T04:47:26;17.17;;;8.33;;
6033;SDS011;3045;43.226;27.858;2023-03-14T04:49:53;21.17;;;8.77;;
6033;SDS011;3045;43.226;27.858;2023-03-14T04:52:20;12.90;;;8.20;;
6033;SDS011;3045;43.226;27.858;2023-03-14T04:54:47;20.87;;;10.20;;
6033;SDS011;3045;43.226;27.858;2023-03-14T04:57:14;27.63;;;10.93;;
6033;SDS011;3045;43.226;27.858;2023-03-14T04:59:42;40.20;;;12.03;;
6033;SDS011;3045;43.226;27.858;2023-03-14T05:02:09;38.07;;;14.60;;
6033;SDS011;3045;43.226;27.858;2023-03-14T05:04:36;40.20;;;14.80;;
6033;SDS011;3045;43.226;27.858;2023-03-14T05:07:03;10.60;;;9.57;;
6033;SDS011;3045;43.226;27.858;2023-03-14T05:09:31;13.30;;;9.27;;
6033;SDS011;3045;43.226;27.858;2023-03-14T05:11:58;31.27;;;11.27;;
6033;SDS011;3045;43.226;27.858;2023-03-14T05:14:25;40.83;;;10.87;;
6033;SDS011;3045;43.226;27.858;2023-03-14T05:16:53;34.23;;;12.40;;
6033;SDS011;3045;43.226;27.858;2023-03-14T05:19:20;42.47;;;11.30;;
6033;SDS011;3045;43.226;27.858;2023-03-14T05:21:47;52.53;;;14.27;;
6033;SDS011;3045;43.226;27.858;2023-03-14T05:24:13;43.70;;;13.07;;
6033;SDS011;3045;43.226;27.858;2023-03-14T05:26:40;48.53;;;15.37;;
6033;SDS011;3045;43.226;27.858;2023-03-14T05:29:07;68.40;;;14.63;;
6033;SDS011;3045;43.226;27.858;2023-03-14T05:31:34;38.60;;;13.80;;
6033;SDS011;3045;43.226;27.858;2023-03-14T05:34:02;25.73;;;11.73;;
6033;SDS011;3045;43.226;27.858;2023-03-14T05:36:29;77.23;;;15.40;;
6033;SDS011;3045;43.226;27.858;2023-03-14T05:38:56;79.60;;;18.23;;
6033;SDS011;3045;43.226;27.858;2023-03-14T05:41:23;56.00;;;14.20;;
6033;SDS011;3045;43.226;27.858;2023-03-14T05:43:50;64.87;;;14.13;;
6033;SDS011;3045;43.226;27.858;2023-03-14T05:46:16;45.73;;;13.30;;
6033;SDS011;3045;43.226;27.858;2023-03-14T05:48:43;39.47;;;12.80;;
6033;SDS011;3045;43.226;27.858;2023-03-14T05:51:12;59.83;;;16.60;;
6033;SDS011;3045;43.226;27.858;2023-03-14T05:53:38;31.43;;;12.27;;
6033;SDS011;3045;43.226;27.858;2023-03-14T05:56:06;22.67;;;10.83;;
6033;SDS011;3045;43.226;27.858;2023-03-14T05:58:33;13.20;;;9.87;;
6033;SDS011;3045;43.226;27.858;2023-03-14T06:01:01;33.33;;;10.93;;
6033;SDS011;3045;43.226;27.858;2023-03-14T06:03:28;39.30;;;12.17;;
6033;SDS011;3045;43.226;27.858;2023-03-14T06:05:55;39.40;;;13.43;;
6033;SDS011;3045;43.226;27.858;2023-03-14T06:08:24;44.33;;;13.70;;
6033;SDS011;3045;43.226;27.858;2023-03-14T06:10:51;38.07;;;13.40;;
6033;SDS011;3045;43.226;27.858;2023-03-14T06:13:18;59.23;;;15.40;;
6033;SDS011;3045;43.226;27.858;2023-03-14T06:15:45;48.17;;;14.20;;
6033;SDS011;3045;43.226;27.858;2023-03-14T06:18:13;55.93;;;18.83;;
6033;SDS011;3045;43.226;27.858;2023-03-14T06:20:40;61.50;;;16.33;;
6033;SDS011;3045;43.226;27.858;2023-03-14T06:23:07;71.37;;;20.97;;
6033;SDS011;3045;43.226;27.858;2023-03-14T06:25:36;94.13;;;25.30;;
6033;SDS011;3045;43.226;27.858;2023-03-14T06:28:04;58.53;;;22.43;;
6033;SDS011;3045;43.226;27.858;2023-03-14T06:30:31;55.33;;;16.23;;
6033;SDS011;3045;43.226;27.858;2023-03-14T06:33:01;35.73;;;9.83;;
6033;SDS011;3045;43.226;27.858;2023-03-14T06:35:27;23.73;;;7.63;;
6033;SDS011;3045;43.226;27.858;2023-03-14T06:37:55;10.97;;;5.23;;
6033;SDS011;3045;43.226;27.858;2023-03-14T06:40:24;16.57;;;7.20;;
6033;SDS011;3045;43.226;27.858;2023-03-14T06:42:52;7.60;;;4.30;;
6033;SDS011;3045;43.226;27.858;2023-03-14T06:45:19;9.23;;;4.50;;
6033;SDS011;3045;43.226;27.858;2023-03-14T06:47:46;3.20;;;2.90;;
6033;SDS011;3045;43.226;27.858;2023-03-14T06:50:13;6.27;;;3.50;;
6033;SDS011;3045;43.226;27.858;2023-03-14T06:52:40;18.77;;;4.20;;
6033;SDS011;3045;43.226;27.858;2023-03-14T06:55:12;10.37;;;4.37;;
6033;SDS011;3045;43.226;27.858;2023-03-14T06:57:40;12.50;;;3.70;;
6033;SDS011;3045;43.226;27.858;2023-03-14T07:00:09;13.83;;;4.60;;
6033;SDS011;3045;43.226;27.858;2023-03-14T07:02:37;21.13;;;4.97;;
6033;SDS011;3045;43.226;27.858;2023-03-14T07:05:04;13.37;;;3.93;;
6033;SDS011;3045;43.226;27.858;2023-03-14T07:07:32;12.50;;;5.60;;
6033;SDS011;3045;43.226;27.858;2023-03-14T07:09:59;8.03;;;3.43;;
6033;SDS011;3045;43.226;27.858;2023-03-14T07:12:27;2.03;;;1.70;;
6033;SDS011;3045;43.226;27.858;2023-03-14T07:14:54;5.83;;;3.10;;
6033;SDS011;3045;43.226;27.858;2023-03-14T07:17:22;6.20;;;3.70;;
6033;SDS011;3045;43.226;27.858;2023-03-14T07:19:49;10.93;;;2.40;;
6033;SDS011;3045;43.226;27.858;2023-03-14T07:22:16;4.20;;;3.83;;
6033;SDS011;3045;43.226;27.858;2023-03-14T07:24:43;5.43;;;3.80;;
6033;SDS011;3045;43.226;27.858;2023-03-14T07:27:10;6.90;;;4.83;;
6033;SDS011;3045;43.226;27.858;2023-03-14T07:29:37;4.73;;;3.80;;
6033;SDS011;3045;43.226;27.858;2023-03-14T07:32:04;3.67;;;3.43;;
6033;SDS011;3045;43.226;27.858;2023-03-14T07:34:34;5.50;;;4.10;;
6033;SDS011;3045;43.226;27.858;2023-03-14T07:37:01;3.87;;;2.40;;
6033;SDS011;3045;43.226;27.858;2023-03-14T07:39:30;3.67;;;3.07;;
6033;SDS011;3045;43.226;27.858;2023-03-14T07:41:57;2.93;;;2.73;;
6033;SDS011;3045;43.226;27.858;2023-03-14T07:44:24;3.13;;;2.93;;
6033;SDS011;3045;43.226;27.858;2023-03-14T07:46:53;4.50;;;4.07;;
6033;SDS011;3045;43.226;27.858;2023-03-14T07:49:20;2.23;;;2.10;;
6033;SDS011;3045;43.226;27.858;2023-03-14T07:51:49;4.77;;;3.40;;
6033;SDS011;3045;43.226;27.858;2023-03-14T07:54:18;6.50;;;3.00;;
6033;SDS011;3045;43.226;27.858;2023-03-14T07:56:45;4.40;;;4.10;;
6033;SDS011;3045;43.226;27.858;2023-03-14T07:59:15;7.63;;;3.70;;
6033;SDS011;3045;43.226;27.858;2023-03-14T08:01:42;4.17;;;3.40;;
6033;SDS011;3045;43.226;27.858;2023-03-14T08:04:09;6.67;;;2.07;;
6033;SDS011;3045;43.226;27.858;2023-03-14T08:06:36;3.10;;;2.90;;
6033;SDS011;3045;43.226;27.858;2023-03-14T08:09:05;3.67;;;3.37;;
6033;SDS011;3045;43.226;27.858;2023-03-14T08:11:32;2.97;;;2.77;;
6033;SDS011;3045;43.226;27.858;2023-03-14T08:13:58;3.73;;;2.50;;
6033;SDS011;3045;43.226;27.858;2023-03-14T08:16:25;3.20;;;2.60;;
6033;SDS011;3045;43.226;27.858;2023-03-14T08:18:52;1.80;;;1.70;;
6033;SDS011;3045;43.226;27.858;2023-03-14T08:21:19;3.87;;;2.57;;
6033;SDS011;3045;43.226;27.858;2023-03-14T08:23:46;1.77;;;1.67;;
6033;SDS011;3045;43.226;27.858;2023-03-14T08:26:14;3.23;;;2.00;;
6033;SDS011;3045;43.226;27.858;2023-03-14T08:28:41;3.23;;;1.97;;
6033;SDS011;3045;43.226;27.858;2023-03-14T08:31:08;2.00;;;1.90;;
6033;SDS011;3045;43.226;27.858;2023-03-14T08:33:37;3.00;;;1.90;;
6033;SDS011;3045;43.226;27.858;2023-03-14T08:36:04;1.60;;;1.50;;
6033;SDS011;3045;43.226;27.858;2023-03-14T08:38:34;6.17;;;1.83;;
6033;SDS011;3045;43.226;27.858;2023-03-14T08:41:02;5.07;;;2.30;;
6033;SDS011;3045;43.226;27.858;2023-03-14T08:43:31;12.73;;;2.10;;
6033;SDS011;3045;43.226;27.858;2023-03-14T08:45:58;2.43;;;1.40;;
6033;SDS011;3045;43.226;27.858;2023-03-14T08:48:26;3.20;;;1.70;;
6033;SDS011;3045;43.226;27.858;2023-03-14T08:50:54;2.83;;;1.60;;
6033;SDS011;3045;43.226;27.858;2023-03-14T08:53:22;2.00;;;1.90;;
6033;SDS011;3045;43.226;27.858;2023-03-14T08:55:51;0.80;;;0.80;;
6033;SDS011;3045;43.226;27.858;2023-03-14T08:58:19;1.40;;;1.30;;
6033;SDS011;3045;43.226;27.858;2023-03-14T09:00:49;3.87;;;1.53;;
6033;SDS011;3045;43.226;27.858;2023-03-14T09:03:30;2.03;;;1.43;;
6033;SDS011;3045;43.226;27.858;2023-03-14T09:06:01;1.40;;;1.30;;
6033;SDS011;3045;43.226;27.858;2023-03-14T09:08:29;1.83;;;1.20;;
6033;SDS011;3045;43.226;27.858;2023-03-14T09:10:56;1.43;;;1.40;;
6033;SDS011;3045;43.226;27.858;2023-03-14T09:13:23;2.13;;;1.60;;
6033;SDS011;3045;43.226;27.858;2023-03-14T09:15:52;1.60;;;1.30;;
6033;SDS011;3045;43.226;27.858;2023-03-14T09:18:19;1.70;;;1.60;;
6033;SDS011;3045;43.226;27.858;2023-03-14T09:20:46;2.27;;;1.40;;
6033;SDS011;3045;43.226;27.858;2023-03-14T09:23:13;3.00;;;1.57;;
6033;SDS011;3045;43.226;27.858;2023-03-14T09:25:40;2.77;;;2.07;;
6033;SDS011;3045;43.226;27.858;2023-03-14T09:28:07;1.70;;;1.50;;
6033;SDS011;3045;43.226;27.858;2023-03-14T09:30:34;2.17;;;1.40;;
6033;SDS011;3045;43.226;27.858;2023-03-14T09:33:03;1.53;;;1.07;;
6033;SDS011;3045;43.226;27.858;2023-03-14T09:35:30;1.83;;;1.30;;
6033;SDS011;3045;43.226;27.858;2023-03-14T09:37:59;1.67;;;1.40;;
6033;SDS011;3045;43.226;27.858;2023-03-14T09:40:27;2.57;;;1.27;;
6033;SDS011;3045;43.226;27.858;2023-03-14T09:43:00;1.77;;;1.30;;
6033;SDS011;3045;43.226;27.858;2023-03-14T09:45:27;4.83;;;1.60;;
6033;SDS011;3045;43.226;27.858;2023-03-14T09:47:57;1.70;;;1.30;;
6033;SDS011;3045;43.226;27.858;2023-03-14T09:50:30;1.20;;;1.20;;
6033;SDS011;3045;43.226;27.858;2023-03-14T09:53:04;1.60;;;1.50;;
6033;SDS011;3045;43.226;27.858;2023-03-14T09:55:35;4.70;;;1.80;;
6033;SDS011;3045;43.226;27.858;2023-03-14T09:58:05;1.40;;;1.30;;
6033;SDS011;3045;43.226;27.858;2023-03-14T10:00:37;2.20;;;1.97;;
6033;SDS011;3045;43.226;27.858;2023-03-14T10:03:14;4.27;;;1.63;;
6033;SDS011;3045;43.226;27.858;2023-03-14T10:05:50;0.90;;;0.90;;
6033;SDS011;3045;43.226;27.858;2023-03-14T10:08:17;1.60;;;1.37;;
6033;SDS011;3045;43.226;27.858;2023-03-14T10:10:47;1.53;;;1.40;;
6033;SDS011;3045;43.226;27.858;2023-03-14T10:13:19;1.87;;;1.50;;
6033;SDS011;3045;43.226;27.858;2023-03-14T10:15:51;1.40;;;1.30;;
6033;SDS011;3045;43.226;27.858;2023-03-14T10:18:19;1.30;;;1.20;;
6033;SDS011;3045;43.226;27.858;2023-03-14T10:21:01;1.60;;;1.50;;
6033;SDS011;3045;43.226;27.858;2023-03-14T10:23:30;2.20;;;1.30;;
6033;SDS011;3045;43.226;27.858;2023-03-14T10:26:08;2.00;;;1.30;;
6033;SDS011;3045;43.226;27.858;2023-03-14T10:28:40;1.03;;;1.03;;
6033;SDS011;3045;43.226;27.858;2023-03-14T10:31:10;7.57;;;2.20;;
6033;SDS011;3045;43.226;27.858;2023-03-14T10:33:37;1.17;;;1.10;;
6033;SDS011;3045;43.226;27.858;2023-03-14T10:36:14;3.00;;;1.50;;
6033;SDS011;3045;43.226;27.858;2023-03-14T10:38:46;4.73;;;1.13;;
6033;SDS011;3045;43.226;27.858;2023-03-14T10:41:15;3.20;;;1.50;;
6033;SDS011;3045;43.226;27.858;2023-03-14T10:43:46;2.40;;;1.43;;
6033;SDS011;3045;43.226;27.858;2023-03-14T10:46:17;1.23;;;1.13;;
6033;SDS011;3045;43.226;27.858;2023-03-14T10:48:46;1.93;;;1.60;;
6033;SDS011;3045;43.226;27.858;2023-03-14T10:51:19;8.20;;;1.87;;
6033;SDS011;3045;43.226;27.858;2023-03-14T10:53:55;1.43;;;1.33;;
6033;SDS011;3045;43.226;27.858;2023-03-14T10:56:24;1.53;;;1.43;;
6033;SDS011;3045;43.226;27.858;2023-03-14T10:58:54;1.60;;;1.50;;
6033;SDS011;3045;43.226;27.858;2023-03-14T11:01:26;1.73;;;1.30;;
6033;SDS011;3045;43.226;27.858;2023-03-14T11:04:05;1.73;;;1.20;;
6033;SDS011;3045;43.226;27.858;2023-03-14T11:06:44;1.50;;;1.40;;
6033;SDS011;3045;43.226;27.858;2023-03-14T11:09:21;3.43;;;1.50;;
6033;SDS011;3045;43.226;27.858;2023-03-14T11:11:55;2.20;;;1.43;;
6033;SDS011;3045;43.226;27.858;2023-03-14T11:14:31;1.20;;;1.20;;
6033;SDS011;3045;43.226;27.858;2023-03-14T11:17:07;4.97;;;1.20;;
6033;SDS011;3045;43.226;27.858;2023-03-14T11:19:43;1.10;;;1.10;;
6033;SDS011;3045;43.226;27.858;2023-03-14T11:22:35;3.90;;;1.50;;
6033;SDS011;3045;43.226;27.858;2023-03-14T11:25:13;6.67;;;1.70;;
6033;SDS011;3045;43.226;27.858;2023-03-14T11:27:48;1.60;;;1.50;;
6033;SDS011;3045;43.226;27.858;2023-03-14T11:30:33;1.93;;;1.50;;
6033;SDS011;3045;43.226;27.858;2023-03-14T11:33:08;1.80;;;1.50;;
6033;SDS011;3045;43.226;27.858;2023-03-14T11:35:42;4.03;;;3.13;;
6033;SDS011;3045;43.226;27.858;2023-03-14T11:38:18;3.27;;;2.97;;
6033;SDS011;3045;43.226;27.858;2023-03-14T11:40:55;1.60;;;1.50;;
6033;SDS011;3045;43.226;27.858;2023-03-14T11:43:25;2.97;;;1.33;;
6033;SDS011;3045;43.226;27.858;2023-03-14T11:45:56;1.20;;;1.20;;
6033;SDS011;3045;43.226;27.858;2023-03-14T11:48:31;4.03;;;1.90;;
6033;SDS011;3045;43.226;27.858;2023-03-14T11:51:06;5.03;;;1.77;;
6033;SDS011;3045;43.226;27.858;2023-03-14T11:53:45;2.30;;;1.30;;
6033;SDS011;3045;43.226;27.858;2023-03-14T11:56:19;2.47;;;1.60;;
6033;SDS011;3045;43.226;27.858;2023-03-14T11:58:57;3.07;;;1.37;;
6033;SDS011;3045;43.226;27.858;2023-03-14T12:01:27;2.87;;;1.60;;
6033;SDS011;3045;43.226;27.858;2023-03-14T12:04:02;1.40;;;1.40;;
6033;SDS011;3045;43.226;27.858;2023-03-14T12:06:37;2.33;;;1.70;;
6033;SDS011;3045;43.226;27.858;2023-03-14T12:09:12;1.47;;;1.47;;
6033;SDS011;3045;43.226;27.858;2023-03-14T12:11:40;2.73;;;1.63;;
6033;SDS011;3045;43.226;27.858;2023-03-14T12:14:18;3.17;;;2.37;;
6033;SDS011;3045;43.226;27.858;2023-03-14T12:16:48;2.27;;;1.80;;
6033;SDS011;3045;43.226;27.858;2023-03-14T12:19:26;3.60;;;1.37;;
6033;SDS011;3045;43.226;27.858;2023-03-14T12:21:57;4.37;;;1.47;;
6033;SDS011;3045;43.226;27.858;2023-03-14T12:24:31;2.93;;;1.23;;
6033;SDS011;3045;43.226;27.858;2023-03-14T12:27:01;4.97;;;1.43;;
6033;SDS011;3045;43.226;27.858;2023-03-14T12:29:29;3.70;;;1.73;;
6033;SDS011;3045;43.226;27.858;2023-03-14T12:32:07;4.67;;;1.40;;
6033;SDS011;3045;43.226;27.858;2023-03-14T12:34:38;2.20;;;1.70;;
6033;SDS011;3045;43.226;27.858;2023-03-14T12:37:15;1.63;;;1.20;;
6033;SDS011;3045;43.226;27.858;2023-03-14T12:39:53;1.27;;;1.17;;
6033;SDS011;3045;43.226;27.858;2023-03-14T12:42:38;5.00;;;1.73;;
6033;SDS011;3045;43.226;27.858;2023-03-14T12:45:15;1.30;;;1.20;;
6033;SDS011;3045;43.226;27.858;2023-03-14T12:50:36;1.10;;;1.10;;
6033;SDS011;3045;43.226;27.858;2023-03-14T12:56:19;1.40;;;1.30;;
6033;SDS011;3045;43.226;27.858;2023-03-14T12:58:54;3.17;;;1.50;;
6033;SDS011;3045;43.226;27.858;2023-03-14T13:01:32;1.50;;;1.40;;
6033;SDS011;3045;43.226;27.858;2023-03-14T13:04:02;3.60;;;1.20;;
6033;SDS011;3045;43.226;27.858;2023-03-14T13:06:50;4.37;;;1.30;;
6033;SDS011;3045;43.226;27.858;2023-03-14T13:09:35;2.87;;;1.30;;
6033;SDS011;3045;43.226;27.858;2023-03-14T13:12:19;1.83;;;1.70;;
6033;SDS011;3045;43.226;27.858;2023-03-14T13:14:57;1.30;;;1.20;;
6033;SDS011;3045;43.226;27.858;2023-03-14T13:17:26;4.17;;;3.97;;
6033;SDS011;3045;43.226;27.858;2023-03-14T13:19:55;3.80;;;1.90;;
6033;SDS011;3045;43.226;27.858;2023-03-14T13:22:26;2.23;;;1.50;;
6033;SDS011;3045;43.226;27.858;2023-03-14T13:24:59;1.57;;;1.40;;
6033;SDS011;3045;43.226;27.858;2023-03-14T13:27:29;1.67;;;1.30;;
6033;SDS011;3045;43.226;27.858;2023-03-14T13:29:59;1.50;;;1.50;;
6033;SDS011;3045;43.226;27.858;2023-03-14T13:32:32;1.30;;;1.20;;
6033;SDS011;3045;43.226;27.858;2023-03-14T13:34:59;1.57;;;1.47;;
6033;SDS011;3045;43.226;27.858;2023-03-14T13:37:26;2.87;;;1.80;;
6033;SDS011;3045;43.226;27.858;2023-03-14T13:39:54;3.13;;;1.70;;
6033;SDS011;3045;43.226;27.858;2023-03-14T13:42:24;2.73;;;2.20;;
6033;SDS011;3045;43.226;27.858;2023-03-14T13:44:55;2.60;;;1.40;;
6033;SDS011;3045;43.226;27.858;2023-03-14T13:47:23;4.10;;;2.00;;
6033;SDS011;3045;43.226;27.858;2023-03-14T13:49:52;2.57;;;1.40;;
6033;SDS011;3045;43.226;27.858;2023-03-14T13:52:29;5.80;;;1.70;;
6033;SDS011;3045;43.226;27.858;2023-03-14T13:54:59;5.63;;;1.47;;
6033;SDS011;3045;43.226;27.858;2023-03-14T13:57:28;2.50;;;1.57;;
6033;SDS011;3045;43.226;27.858;2023-03-14T14:00:17;2.23;;;2.10;;
6033;SDS011;3045;43.226;27.858;2023-03-14T14:02:45;3.20;;;2.17;;
6033;SDS011;3045;43.226;27.858;2023-03-14T14:05:14;2.53;;;2.10;;
6033;SDS011;3045;43.226;27.858;2023-03-14T14:07:42;2.63;;;1.60;;
6033;SDS011;3045;43.226;27.858;2023-03-14T14:10:11;1.57;;;1.40;;
6033;SDS011;3045;43.226;27.858;2023-03-14T14:12:41;3.67;;;2.07;;
6033;SDS011;3045;43.226;27.858;2023-03-14T14:15:15;5.13;;;2.07;;
6033;SDS011;3045;43.226;27.858;2023-03-14T14:17:48;1.30;;;1.20;;
6033;SDS011;3045;43.226;27.858;2023-03-14T14:20:22;1.63;;;1.53;;
6033;SDS011;3045;43.226;27.858;2023-03-14T14:22:57;1.80;;;1.70;;
6033;SDS011;3045;43.226;27.858;2023-03-14T14:25:25;2.90;;;2.40;;
6033;SDS011;3045;43.226;27.858;2023-03-14T14:27:52;1.83;;;1.70;;
6033;SDS011;3045;43.226;27.858;2023-03-14T14:30:27;2.47;;;2.10;;
6033;SDS011;3045;43.226;27.858;2023-03-14T14:33:09;2.23;;;2.13;;
6033;SDS011;3045;43.226;27.858;2023-03-14T14:35:38;3.30;;;2.20;;
6033;SDS011;3045;43.226;27.858;2023-03-14T14:38:10;3.13;;;1.97;;
6033;SDS011;3045;43.226;27.858;2023-03-14T14:40:49;7.27;;;2.10;;
6033;SDS011;3045;43.226;27.858;2023-03-14T14:43:22;4.93;;;1.87;;
6033;SDS011;3045;43.226;27.858;2023-03-14T14:45:53;4.40;;;1.97;;
6033;SDS011;3045;43.226;27.858;2023-03-14T14:48:27;1.40;;;1.30;;
6033;SDS011;3045;43.226;27.858;2023-03-14T14:50:58;1.90;;;1.80;;
6033;SDS011;3045;43.226;27.858;2023-03-14T14:53:28;1.90;;;1.80;;
6033;SDS011;3045;43.226;27.858;2023-03-14T14:55:58;2.27;;;1.60;;
6033;SDS011;3045;43.226;27.858;2023-03-14T14:58:30;5.03;;;1.53;;
6033;SDS011;3045;43.226;27.858;2023-03-14T15:01:04;1.60;;;1.50;;
6033;SDS011;3045;43.226;27.858;2023-03-14T15:03:36;2.30;;;2.20;;
6033;SDS011;3045;43.226;27.858;2023-03-14T15:06:03;4.10;;;2.17;;
6033;SDS011;3045;43.226;27.858;2023-03-14T15:08:30;4.13;;;2.10;;
6033;SDS011;3045;43.226;27.858;2023-03-14T15:10:57;1.20;;;1.10;;
6033;SDS011;3045;43.226;27.858;2023-03-14T15:13:24;1.70;;;1.60;;
6033;SDS011;3045;43.226;27.858;2023-03-14T15:15:51;4.43;;;4.03;;